Time;durP1;ratioP1;P1;durP2;ratioP2;P2;SDS_P1;SDS_P2;PMS_P1;PMS_P2;Temp;Humidity;BMP_temperature;BMP_pressure;BME280_temperature;BME280_humidity;BME280_pressure;Samples;Min_cycle;Max_cycle;Signal;HPM_P1;HPM_P2
2022/05/22 00:00:07;;;;;;;5.43;2.80;;;;;;;12.55;100.00;100315.00;5025751;28;20580;-62
2022/05/22 00:02:33;;;;;;;11.97;3.53;;;;;;;12.51;100.00;100316.94;5046300;28;20207;-63
2022/05/22 00:04:58;;;;;;;4.47;2.90;;;;;;;12.45;100.00;100301.00;5066436;28;20184;-62
2022/05/22 00:07:23;;;;;;;7.23;3.27;;;;;;;12.42;100.00;100302.03;5066984;28;20214;-62
2022/05/22 00:09:49;;;;;;;7.73;3.17;;;;;;;12.33;100.00;100310.28;5050553;28;20184;-62
2022/05/22 00:12:15;;;;;;;7.10;3.10;;;;;;;12.33;100.00;100298.25;5073781;28;20230;-61
2022/05/22 00:14:40;;;;;;;6.93;2.80;;;;;;;12.28;100.00;100297.69;5067133;28;20237;-61
2022/05/22 00:17:09;;;;;;;7.47;3.07;;;;;;;12.30;100.00;100307.91;5051308;28;20260;-62
2022/05/22 00:19:36;;;;;;;6.10;2.80;;;;;;;12.29;100.00;100303.66;5048655;28;20298;-62
2022/05/22 00:22:03;;;;;;;6.50;3.37;;;;;;;12.25;100.00;100297.84;5076855;28;20237;-61
2022/05/22 00:24:30;;;;;;;11.07;3.80;;;;;;;12.03;100.00;100293.09;5050394;28;20691;-62
2022/05/22 00:26:57;;;;;;;6.67;3.20;;;;;;;12.04;100.00;100297.34;5066555;28;20543;-62
2022/05/22 00:29:22;;;;;;;7.40;3.67;;;;;;;12.08;100.00;100299.66;5058527;28;20242;-62
2022/05/22 00:31:48;;;;;;;5.87;3.17;;;;;;;12.10;100.00;100297.81;5049551;28;20718;-63
2022/05/22 00:34:13;;;;;;;6.60;3.40;;;;;;;12.07;100.00;100297.19;5035636;28;20237;-62
2022/05/22 00:36:39;;;;;;;8.27;3.80;;;;;;;11.97;100.00;100294.28;5031044;28;20185;-62
2022/05/22 00:39:05;;;;;;;6.03;3.40;;;;;;;11.91;100.00;100295.44;5050370;28;20209;-61
2022/05/22 00:41:33;;;;;;;9.10;3.90;;;;;;;11.86;100.00;100296.63;5054946;28;20223;-62
2022/05/22 00:44:00;;;;;;;9.20;3.83;;;;;;;11.85;100.00;100297.53;5048680;28;20199;-62
2022/05/22 00:46:26;;;;;;;15.43;4.57;;;;;;;11.82;100.00;100297.69;5046177;28;20599;-62
2022/05/22 00:48:57;;;;;;;8.60;3.80;;;;;;;11.88;100.00;100295.63;5031661;28;20616;-61
2022/05/22 00:51:28;;;;;;;7.33;3.43;;;;;;;11.83;100.00;100295.03;5050888;28;20231;-62
2022/05/22 00:54:22;;;;;;;6.23;3.30;;;;;;;11.68;100.00;100296.72;5040444;28;20184;-61
2022/05/22 00:57:00;;;;;;;8.43;3.30;;;;;;;11.69;100.00;100293.25;5032465;28;20544;-63
2022/05/22 00:59:37;;;;;;;8.23;3.60;;;;;;;11.71;100.00;100296.56;5031415;28;20643;-61
2022/05/22 01:02:03;;;;;;;8.53;3.53;;;;;;;11.75;100.00;100295.47;5056494;28;20380;-62
2022/05/22 01:04:31;;;;;;;8.60;3.80;;;;;;;11.76;100.00;100286.00;5030436;28;20672;-61
2022/05/22 01:06:57;;;;;;;5.93;3.70;;;;;;;11.74;100.00;100288.66;5046126;28;20174;-61
2022/05/22 01:09:22;;;;;;;6.63;3.47;;;;;;;11.71;100.00;100286.25;5033883;28;20518;-61
2022/05/22 01:11:52;;;;;;;6.27;3.30;;;;;;;11.66;100.00;100290.84;5049819;28;20235;-61
2022/05/22 01:14:21;;;;;;;9.53;3.93;;;;;;;11.65;100.00;100293.50;5049171;28;20357;-61
2022/05/22 01:16:50;;;;;;;5.33;3.40;;;;;;;11.66;100.00;100303.72;5053322;28;20349;-61
2022/05/22 01:19:18;;;;;;;6.23;3.10;;;;;;;11.62;100.00;100297.06;5055121;28;20173;-60
2022/05/22 01:22:19;;;;;;;8.03;3.47;;;;;;;11.41;100.00;100291.34;5060227;28;20227;-61
2022/05/22 01:24:44;;;;;;;4.80;3.07;;;;;;;11.49;100.00;100281.47;4993472;28;20557;-61
2022/05/22 01:27:15;;;;;;;4.43;3.30;;;;;;;11.43;100.00;100274.09;4993078;28;20304;-61
2022/05/22 01:29:41;;;;;;;4.43;2.83;;;;;;;11.46;100.00;100279.06;4976920;28;20183;-61
2022/05/22 01:32:07;;;;;;;6.67;3.63;;;;;;;11.36;100.00;100278.75;4999634;28;20228;-61
2022/05/22 01:34:32;;;;;;;5.83;3.33;;;;;;;11.31;100.00;100273.00;4993126;28;20204;-61
2022/05/22 01:36:58;;;;;;;6.00;3.03;;;;;;;11.31;100.00;100273.00;4976494;28;20188;-62
2022/05/22 01:39:23;;;;;;;6.17;3.00;;;;;;;11.28;100.00;100271.44;4992683;28;20193;-61
2022/05/22 01:41:48;;;;;;;6.30;3.20;;;;;;;11.34;100.00;100266.84;4997315;28;20297;-61
2022/05/22 01:44:14;;;;;;;6.37;3.30;;;;;;;11.29;100.00;100267.94;4995079;28;20592;-60
2022/05/22 01:46:39;;;;;;;5.57;3.03;;;;;;;11.32;100.00;100264.38;4992741;28;20180;-61
2022/05/22 01:49:05;;;;;;;4.30;3.00;;;;;;;11.36;100.00;100271.03;4992948;28;20186;-61
2022/05/22 01:51:35;;;;;;;5.57;3.57;;;;;;;11.38;100.00;100278.66;4994061;28;20222;-61
2022/05/22 01:54:01;;;;;;;3.57;2.70;;;;;;;11.47;100.00;100267.84;4980303;28;20202;-61
2022/05/22 01:56:28;;;;;;;5.70;2.80;;;;;;;11.50;100.00;100261.69;4975498;28;20605;-60
2022/05/22 01:58:53;;;;;;;4.50;2.93;;;;;;;11.49;100.00;100258.28;5019524;28;20215;-61
2022/05/22 02:01:19;;;;;;;5.27;3.90;;;;;;;11.50;100.00;100256.53;5064743;28;20221;-61
2022/05/22 02:03:44;;;;;;;4.80;2.80;;;;;;;11.52;100.00;100255.53;5065503;28;20253;-61
2022/05/22 02:06:09;;;;;;;3.77;3.10;;;;;;;11.50;100.00;100248.81;5053982;28;20534;-61
2022/05/22 02:08:34;;;;;;;5.30;3.17;;;;;;;11.48;100.00;100254.06;5054418;28;20170;-61
2022/05/22 02:11:03;;;;;;;5.93;3.37;;;;;;;11.52;100.00;100244.41;5059631;28;20226;-61
2022/05/22 02:13:34;;;;;;;4.90;2.83;;;;;;;11.46;100.00;100241.25;5055783;28;20288;-60
2022/05/22 02:15:59;;;;;;;5.93;2.87;;;;;;;11.47;100.00;100242.09;5053607;28;20308;-61
2022/05/22 02:18:25;;;;;;;8.20;3.13;;;;;;;11.45;100.00;100238.78;5053693;28;20324;-60
2022/05/22 02:20:50;;;;;;;10.17;3.50;;;;;;;11.44;100.00;100253.38;5049689;28;20247;-61
2022/05/22 02:23:17;;;;;;;6.97;3.47;;;;;;;11.43;100.00;100256.06;5063225;28;20186;-61
2022/05/22 02:25:47;;;;;;;5.03;3.13;;;;;;;11.41;100.00;100261.31;5052447;28;20931;-61
2022/05/22 02:28:14;;;;;;;5.33;3.13;;;;;;;11.26;100.00;100257.81;5052073;28;20254;-63
2022/05/22 02:30:43;;;;;;;4.97;3.20;;;;;;;11.19;100.00;100243.63;5045420;28;20229;-62
2022/05/22 02:33:10;;;;;;;5.03;3.07;;;;;;;11.08;100.00;100245.97;5041601;28;20239;-61
2022/05/22 02:35:36;;;;;;;4.97;2.90;;;;;;;10.94;100.00;100242.38;5053511;28;20201;-61
2022/05/22 02:38:02;;;;;;;5.43;3.27;;;;;;;10.91;100.00;100241.72;5051890;28;20181;-61
2022/05/22 02:40:30;;;;;;;4.73;3.43;;;;;;;10.93;100.00;100238.16;5048808;28;20358;-61
2022/05/22 02:42:56;;;;;;;5.47;3.20;;;;;;;10.94;100.00;100241.53;5064596;28;20639;-61
2022/05/22 02:45:24;;;;;;;6.97;4.60;;;;;;;10.92;100.00;100233.09;5053371;28;20181;-61
2022/05/22 02:47:50;;;;;;;7.67;3.20;;;;;;;10.83;100.00;100229.25;5051663;28;20244;-61
2022/05/22 02:50:18;;;;;;;7.57;3.13;;;;;;;10.76;100.00;100218.44;5035783;28;20189;-61
2022/05/22 02:52:43;;;;;;;3.63;3.00;;;;;;;10.67;100.00;100221.53;5061272;28;20204;-61
2022/05/22 02:55:09;;;;;;;4.93;3.33;;;;;;;10.64;100.00;100224.25;5033415;28;20653;-61
2022/05/22 02:57:36;;;;;;;6.67;3.50;;;;;;;10.65;100.00;100221.63;5047880;28;20174;-62
2022/05/22 03:00:06;;;;;;;6.27;4.00;;;;;;;10.71;100.00;100214.47;5047144;28;20174;-62
2022/05/22 03:02:31;;;;;;;6.87;3.63;;;;;;;10.72;100.00;100211.00;5054949;28;20244;-61
2022/05/22 03:04:57;;;;;;;3.47;3.17;;;;;;;10.73;100.00;100210.06;5033517;28;20727;-61
2022/05/22 03:07:22;;;;;;;4.17;3.63;;;;;;;10.69;100.00;100208.56;5036224;28;20186;-61
2022/05/22 03:09:47;;;;;;;4.33;3.20;;;;;;;10.66;100.00;100200.09;5047977;28;20177;-61
2022/05/22 03:12:22;;;;;;;5.73;2.97;;;;;;;10.53;100.00;100195.69;5074735;28;20370;-63
2022/05/22 03:14:50;;;;;;;4.73;3.37;;;;;;;10.56;100.00;100195.56;5068189;28;20254;-61
2022/05/22 03:17:16;;;;;;;5.37;3.50;;;;;;;10.55;100.00;100194.69;5040483;28;20272;-61
2022/05/22 03:19:41;;;;;;;6.40;3.57;;;;;;;10.62;100.00;100205.50;5051507;28;20613;-61
2022/05/22 03:22:08;;;;;;;6.77;3.70;;;;;;;10.68;100.00;100212.06;5058191;28;20319;-61
2022/05/22 03:24:34;;;;;;;5.40;3.40;;;;;;;10.60;100.00;100212.47;5051272;28;20173;-62
2022/05/22 03:27:05;;;;;;;4.33;3.50;;;;;;;10.61;100.00;100211.56;5054171;28;20272;-62
2022/05/22 03:29:31;;;;;;;4.07;3.20;;;;;;;10.56;100.00;100211.78;5067926;28;20183;-61
2022/05/22 03:31:57;;;;;;;7.03;3.43;;;;;;;10.51;100.00;100210.41;5036519;28;20295;-61
2022/05/22 03:34:22;;;;;;;4.30;3.67;;;;;;;10.57;100.00;100202.34;5053350;28;20189;-61
2022/05/22 03:36:48;;;;;;;3.77;3.40;;;;;;;10.52;100.00;100200.03;5066969;28;20240;-63
2022/05/22 03:39:14;;;;;;;4.60;3.57;;;;;;;10.52;100.00;100196.59;5052591;28;20166;-62
2022/05/22 03:41:40;;;;;;;4.77;3.37;;;;;;;10.44;100.00;100194.44;5067800;28;20220;-62
2022/05/22 03:44:06;;;;;;;6.77;3.57;;;;;;;10.44;100.00;100197.00;5051773;28;20256;-61
2022/05/22 03:46:32;;;;;;;3.83;3.40;;;;;;;10.47;100.00;100199.44;5042906;28;20641;-62
2022/05/22 03:48:57;;;;;;;5.77;3.50;;;;;;;10.45;100.00;100196.09;5056491;28;20197;-61
2022/05/22 03:51:23;;;;;;;4.50;3.33;;;;;;;10.48;100.00;100185.63;5051691;28;20229;-61
2022/05/22 03:53:48;;;;;;;5.23;3.50;;;;;;;10.51;100.00;100182.09;5042607;28;20175;-61
2022/05/22 03:56:16;;;;;;;6.13;3.63;;;;;;;10.53;100.00;100183.69;5031599;28;20209;-61
2022/05/22 03:58:42;;;;;;;8.83;3.80;;;;;;;10.58;100.00;100184.25;5047603;28;20202;-60
2022/05/22 04:01:07;;;;;;;6.13;3.50;;;;;;;10.56;100.00;100180.13;5049327;28;20228;-60
2022/05/22 04:03:34;;;;;;;3.90;3.50;;;;;;;10.52;100.00;100189.72;5049903;28;20201;-64
2022/05/22 04:06:03;;;;;;;6.80;3.33;;;;;;;10.63;100.00;100190.00;5047102;28;20564;-60
2022/05/22 04:08:29;;;;;;;4.47;3.90;;;;;;;10.68;100.00;100191.47;5031538;28;20171;-62
2022/05/22 04:10:55;;;;;;;5.33;3.50;;;;;;;10.78;100.00;100190.91;5047210;28;20232;-61
2022/05/22 04:13:20;;;;;;;5.47;3.77;;;;;;;10.93;100.00;100183.28;5055987;28;20173;-61
2022/05/22 04:15:46;;;;;;;6.13;3.57;;;;;;;10.91;100.00;100178.19;5051670;28;20219;-60
2022/05/22 04:18:14;;;;;;;4.43;3.60;;;;;;;11.05;100.00;100174.03;5049277;28;20256;-62
2022/05/22 04:20:40;;;;;;;3.37;3.00;;;;;;;11.02;100.00;100172.47;5045751;28;20750;-61
2022/05/22 04:25:54;;;;;;;3.07;2.70;;;;;;;11.17;100.00;100173.34;5051613;28;20222;-62
2022/05/22 04:28:19;;;;;;;7.17;3.57;;;;;;;11.30;100.00;100169.19;5049534;28;20242;-62
2022/05/22 04:30:44;;;;;;;4.80;3.57;;;;;;;11.46;100.00;100165.72;5046487;28;20307;-61
2022/05/22 04:33:10;;;;;;;4.63;3.30;;;;;;;11.54;100.00;100178.19;5061187;28;20699;-61
2022/05/22 04:35:37;;;;;;;5.57;3.57;;;;;;;11.57;100.00;100170.25;5043352;28;20190;-62
2022/05/22 04:38:03;;;;;;;4.47;3.83;;;;;;;11.66;100.00;100169.75;5030582;28;20317;-61
2022/05/22 04:40:28;;;;;;;4.47;3.47;;;;;;;11.69;100.00;100163.59;5026689;28;20316;-63
2022/05/22 04:42:54;;;;;;;8.67;3.47;;;;;;;11.74;100.00;100164.94;5056416;28;20177;-61
2022/05/22 04:45:19;;;;;;;5.47;3.30;;;;;;;11.75;100.00;100170.97;5037295;28;20306;-61
2022/05/22 04:47:44;;;;;;;6.20;3.33;;;;;;;11.81;100.00;100151.72;5049595;28;20643;-62
2022/05/22 04:50:12;;;;;;;5.10;3.10;;;;;;;11.76;100.00;100149.44;5042842;28;20764;-62
2022/05/22 04:52:37;;;;;;;4.97;3.13;;;;;;;11.94;100.00;100152.66;5059011;28;20215;-60
2022/05/22 04:55:03;;;;;;;3.60;2.97;;;;;;;11.96;100.00;100156.00;5050959;28;20250;-62
2022/05/22 04:57:29;;;;;;;5.77;3.27;;;;;;;12.07;100.00;100155.38;5066042;28;20264;-60
2022/05/22 04:59:54;;;;;;;5.97;3.53;;;;;;;12.03;100.00;100157.31;5051377;28;20585;-61
2022/05/22 05:02:22;;;;;;;4.10;3.27;;;;;;;12.18;100.00;100159.88;5073196;28;20371;-62
2022/05/22 05:04:47;;;;;;;6.53;3.47;;;;;;;12.36;100.00;100156.16;5066154;28;20177;-61
2022/05/22 05:07:13;;;;;;;5.53;3.40;;;;;;;12.34;100.00;100160.63;5050727;28;20188;-64
2022/05/22 05:09:38;;;;;;;8.97;3.80;;;;;;;12.53;100.00;100157.72;5044609;28;20696;-63
2022/05/22 05:12:05;;;;;;;5.37;3.67;;;;;;;12.72;100.00;100154.00;5053981;28;20236;-64
2022/05/22 05:14:30;;;;;;;4.57;3.10;;;;;;;12.87;100.00;100154.78;5061452;28;20575;-61
2022/05/22 05:16:55;;;;;;;4.77;3.43;;;;;;;12.97;100.00;100153.25;5050398;28;20213;-63
2022/05/22 05:19:21;;;;;;;4.63;3.30;;;;;;;13.16;100.00;100152.94;5050750;28;20173;-63
2022/05/22 05:21:46;;;;;;;3.77;3.03;;;;;;;13.36;100.00;100150.81;5053584;28;20251;-62
2022/05/22 05:24:11;;;;;;;6.27;3.43;;;;;;;13.50;100.00;100152.50;5053198;28;20173;-63
2022/05/22 05:26:37;;;;;;;5.40;3.20;;;;;;;13.55;100.00;100153.03;5050336;28;20173;-59
2022/05/22 05:29:02;;;;;;;5.20;3.20;;;;;;;13.76;100.00;100157.72;5034385;28;20183;-59
2022/05/22 05:31:27;;;;;;;4.43;3.40;;;;;;;13.74;98.27;100157.78;5033417;28;20685;-60
2022/05/22 05:33:52;;;;;;;5.83;3.77;;;;;;;13.88;97.30;100160.28;5041580;28;20209;-59
2022/05/22 05:36:18;;;;;;;6.50;3.03;;;;;;;14.06;96.03;100153.97;5029673;28;20730;-59
2022/05/22 05:38:43;;;;;;;5.40;3.00;;;;;;;14.08;94.31;100154.69;5048305;28;20177;-58
2022/05/22 05:41:08;;;;;;;7.03;3.20;;;;;;;14.06;94.29;100156.56;5042341;28;20300;-59
2022/05/22 05:43:34;;;;;;;6.13;3.30;;;;;;;14.33;91.13;100159.81;5046684;28;20261;-59
2022/05/22 05:45:59;;;;;;;7.87;3.20;;;;;;;14.31;86.21;100161.72;5045940;28;20186;-59
2022/05/22 05:48:24;;;;;;;3.13;2.83;;;;;;;14.57;86.38;100164.22;5066458;28;20190;-58
2022/05/22 05:50:50;;;;;;;6.70;3.53;;;;;;;14.95;81.33;100158.09;5045866;28;20678;-59
2022/05/22 05:53:15;;;;;;;5.60;2.70;;;;;;;15.07;80.41;100164.19;5059114;28;20602;-58
2022/05/22 05:55:41;;;;;;;7.80;3.03;;;;;;;15.36;78.36;100163.81;5048654;28;20243;-59
2022/05/22 05:58:06;;;;;;;4.43;3.00;;;;;;;15.26;76.41;100166.25;5030078;28;20170;-57
2022/05/22 06:00:32;;;;;;;6.23;3.23;;;;;;;15.53;75.91;100156.53;5035456;28;20228;-58
2022/05/22 06:02:57;;;;;;;4.57;3.10;;;;;;;15.77;74.07;100156.47;5058629;28;20542;-58
2022/05/22 06:05:23;;;;;;;6.37;3.60;;;;;;;15.81;73.18;100155.28;5033429;28;20235;-58
2022/05/22 06:07:51;;;;;;;4.13;3.23;;;;;;;15.79;72.25;100152.00;5046770;28;20200;-59
2022/05/22 06:10:17;;;;;;;5.90;3.53;;;;;;;15.77;73.07;100159.06;5044923;28;20630;-57
2022/05/22 06:12:43;;;;;;;3.87;3.07;;;;;;;15.72;72.52;100164.59;5061978;28;20178;-58
2022/05/22 06:15:09;;;;;;;4.67;3.03;;;;;;;16.06;70.14;100162.09;5045653;28;20807;-59
2022/05/22 06:17:37;;;;;;;7.17;4.00;;;;;;;16.22;69.86;100163.47;5036773;28;20724;-59
2022/05/22 06:20:06;;;;;;;10.43;3.33;;;;;;;16.36;68.42;100162.41;5041677;28;20185;-59
2022/05/22 06:22:34;;;;;;;5.57;3.57;;;;;;;16.62;67.94;100162.94;5064401;28;20201;-58
2022/05/22 06:24:59;;;;;;;4.30;3.10;;;;;;;16.73;66.42;100168.13;5052201;28;20190;-59
2022/05/22 06:27:25;;;;;;;5.70;2.97;;;;;;;16.92;66.07;100164.09;5051967;28;20264;-58
2022/05/22 06:29:50;;;;;;;6.97;3.70;;;;;;;17.05;66.58;100167.34;5033334;28;20189;-58
2022/05/22 06:32:19;;;;;;;7.77;4.00;;;;;;;17.36;65.08;100167.44;5036974;28;20770;-59
2022/05/22 06:34:44;;;;;;;6.47;3.37;;;;;;;18.00;62.16;100173.47;5015895;28;20214;-59
2022/05/22 06:37:12;;;;;;;5.13;3.30;;;;;;;19.46;56.08;100166.03;5013533;28;20183;-59
2022/05/22 06:39:50;;;;;;;4.57;3.30;;;;;;;20.77;50.63;100163.47;5026143;28;20671;-59
2022/05/22 06:42:31;;;;;;;4.53;2.87;;;;;;;22.02;46.00;100164.22;5053648;28;20268;-59
2022/05/22 06:45:00;;;;;;;8.80;3.43;;;;;;;21.57;46.68;100165.25;5033448;28;20637;-59
2022/05/22 06:47:28;;;;;;;5.40;3.23;;;;;;;21.52;47.17;100165.72;5048968;28;20190;-58
2022/05/22 06:49:55;;;;;;;4.63;2.50;;;;;;;22.35;44.93;100168.75;5048626;28;20229;-60
2022/05/22 06:52:20;;;;;;;3.43;2.60;;;;;;;23.02;43.16;100173.16;5055076;28;20220;-58
2022/05/22 06:54:45;;;;;;;3.77;3.00;;;;;;;24.15;40.50;100169.72;5043911;28;20527;-58
2022/05/22 06:57:15;;;;;;;4.27;2.73;;;;;;;24.62;39.24;100168.00;5032777;28;20186;-59
2022/05/22 06:59:40;;;;;;;6.57;2.83;;;;;;;25.09;38.01;100173.28;5036189;28;20189;-58
2022/05/22 07:02:06;;;;;;;6.05;2.85;;;;;;;25.20;37.32;100170.22;5032540;28;20536;-62
2022/05/22 07:04:31;;;;;;;4.97;2.25;;;;;;;24.79;36.37;100168.72;5044461;28;20193;-62
2022/05/22 07:06:56;;;;;;;4.65;2.67;;;;;;;24.22;38.34;100169.06;5033280;28;20632;-62
2022/05/22 07:09:22;;;;;;;4.10;2.33;;;;;;;25.30;35.66;100167.34;5032930;28;20170;-63
2022/05/22 07:11:49;;;;;;;6.72;2.42;;;;;;;26.38;34.65;100162.56;5050256;28;20300;-63
2022/05/22 07:14:14;;;;;;;4.72;2.30;;;;;;;26.11;34.35;100161.44;5049586;28;20217;-63
2022/05/22 07:16:40;;;;;;;3.65;2.08;;;;;;;26.19;34.50;100157.88;5054614;28;20278;-62
2022/05/22 07:19:07;;;;;;;3.85;2.22;;;;;;;27.20;32.39;100157.88;5051629;28;20624;-61
2022/05/22 07:21:33;;;;;;;4.97;2.28;;;;;;;27.26;32.43;100153.63;5044071;28;20308;-62
2022/05/22 07:23:59;;;;;;;5.00;2.28;;;;;;;27.55;32.02;100149.19;5056243;28;20273;-62
2022/05/22 07:26:26;;;;;;;3.25;2.00;;;;;;;27.74;32.18;100145.00;5067769;28;20523;-63
2022/05/22 07:28:52;;;;;;;3.35;1.98;;;;;;;28.90;30.22;100139.88;5054534;28;20282;-63
2022/05/22 07:31:23;;;;;;;3.55;2.30;;;;;;;29.52;28.90;100137.78;5022015;28;20422;-63
2022/05/22 07:33:48;;;;;;;3.53;2.10;;;;;;;30.50;27.11;100137.78;5043811;28;20206;-62
2022/05/22 07:36:16;;;;;;;3.83;2.45;;;;;;;29.65;28.51;100136.94;5031088;28;20290;-62
2022/05/22 07:38:41;;;;;;;2.55;1.67;;;;;;;30.31;27.47;100136.88;5058244;28;20189;-62
2022/05/22 07:41:06;;;;;;;3.17;1.70;;;;;;;29.18;28.57;100137.00;5039114;28;20232;-62
2022/05/22 07:43:32;;;;;;;2.70;1.88;;;;;;;29.37;28.32;100138.00;5047043;28;20256;-62
2022/05/22 07:45:58;;;;;;;5.38;1.80;;;;;;;30.21;27.37;100130.19;5036048;28;20186;-70
2022/05/22 07:48:24;;;;;;;3.80;2.35;;;;;;;29.72;27.73;100135.09;5064947;28;20207;-63
2022/05/22 07:51:00;;;;;;;6.22;1.90;;;;;;;30.02;26.96;100136.41;5054384;28;20278;-62
2022/05/22 07:53:27;;;;;;;2.67;1.73;;;;;;;29.71;28.73;100127.34;5059166;28;20234;-63
2022/05/22 07:55:52;;;;;;;4.43;2.05;;;;;;;31.51;25.75;100132.44;5051678;28;20213;-62
2022/05/22 07:58:19;;;;;;;4.38;1.90;;;;;;;31.13;25.16;100133.44;5051617;28;20515;-62
2022/05/22 08:00:44;;;;;;;2.58;1.73;;;;;;;30.67;26.25;100124.81;5049578;28;20571;-63
2022/05/22 08:03:15;;;;;;;6.20;2.15;;;;;;;29.24;27.39;100112.34;5072730;28;20215;-62
2022/05/22 08:05:41;;;;;;;2.25;1.45;;;;;;;28.43;28.99;100106.22;5050438;28;20197;-62
2022/05/22 08:08:07;;;;;;;2.90;1.50;;;;;;;28.34;29.95;100097.66;5029972;28;20583;-62
2022/05/22 08:10:36;;;;;;;3.97;1.88;;;;;;;30.38;27.18;100105.81;5025079;28;20241;-62
2022/05/22 08:13:03;;;;;;;3.70;1.80;;;;;;;31.67;24.28;100109.81;5026060;28;20254;-62
2022/05/22 08:15:30;;;;;;;2.40;1.65;;;;;;;30.96;24.65;100115.41;5030014;28;20217;-62
2022/05/22 08:17:56;;;;;;;3.85;2.00;;;;;;;29.77;26.76;100107.91;5029269;28;20230;-62
2022/05/22 08:20:21;;;;;;;3.22;1.80;;;;;;;29.87;27.38;100105.66;5022647;28;20229;-62
2022/05/22 08:22:47;;;;;;;4.70;1.90;;;;;;;32.78;23.33;100106.81;5050135;28;20166;-62
2022/05/22 08:25:16;;;;;;;3.72;1.60;;;;;;;33.10;22.85;100108.31;5051650;28;20625;-62
2022/05/22 08:27:42;;;;;;;5.68;2.22;;;;;;;31.84;23.91;100100.19;5049691;28;20173;-62
2022/05/22 08:30:10;;;;;;;2.30;1.55;;;;;;;31.74;25.13;100097.22;5040526;28;20303;-62
2022/05/22 08:32:41;;;;;;;3.97;2.05;;;;;;;32.66;23.31;100085.47;5067659;28;20265;-63
2022/05/22 08:35:09;;;;;;;4.57;1.70;;;;;;;31.95;22.93;100087.13;5036906;28;20660;-62
2022/05/22 08:37:35;;;;;;;4.28;2.08;;;;;;;29.69;26.42;100074.53;5044746;28;20182;-62
2022/05/22 08:40:01;;;;;;;3.90;2.05;;;;;;;29.65;26.22;100070.66;5047804;28;20230;-61
2022/05/22 08:42:41;;;;;;;4.88;2.10;;;;;;;29.92;26.34;100071.38;5072496;28;20225;-62
2022/05/22 08:45:17;;;;;;;4.03;1.92;;;;;;;31.34;24.58;100069.25;5066657;28;20272;-60
2022/05/22 08:48:08;;;;;;;2.85;1.55;;;;;;;28.58;27.58;100068.16;5048925;28;20289;-61
2022/05/22 08:50:35;;;;;;;4.03;1.85;;;;;;;29.73;27.36;100066.97;5039266;28;20227;-61
2022/05/22 08:53:15;;;;;;;2.70;1.60;;;;;;;28.55;29.27;100063.28;5061950;28;20181;-62
2022/05/22 08:58:56;;;;;;;3.97;1.67;;;;;;;30.58;25.42;100063.22;5050050;28;20256;-62
2022/05/22 09:01:52;;;;;;;2.22;1.85;;;;;;;26.77;30.03;100060.28;5057796;28;20228;-61
2022/05/22 09:04:32;;;;;;;4.18;2.33;;;;;;;29.08;28.86;100044.72;5046771;28;20181;-62
2022/05/22 09:07:08;;;;;;;5.88;1.50;;;;;;;31.25;26.73;100054.66;5049330;28;20172;-62
2022/05/22 09:09:37;;;;;;;7.50;2.28;;;;;;;28.60;27.11;100043.13;5065981;28;20180;-61
2022/05/22 09:12:34;;;;;;;2.35;1.38;;;;;;;30.87;24.19;100052.97;5075622;28;20231;-61
2022/05/22 09:15:18;;;;;;;2.90;1.52;;;;;;;31.92;22.73;100042.38;5050670;28;20234;-63
2022/05/22 09:17:55;;;;;;;2.75;1.60;;;;;;;32.54;22.32;100036.75;5048755;28;20591;-61
2022/05/22 09:20:48;;;;;;;2.67;1.63;;;;;;;33.85;21.26;100044.53;5041414;28;20215;-62
2022/05/22 09:23:39;;;;;;;2.30;1.35;;;;;;;34.04;21.18;100040.59;5025708;28;20248;-61
2022/05/22 09:26:12;;;;;;;2.15;1.30;;;;;;;32.49;21.56;100036.63;5012982;28;20281;-62
2022/05/22 09:29:15;;;;;;;3.72;1.50;;;;;;;31.10;23.46;100043.56;5011860;28;20268;-62
2022/05/22 09:31:47;;;;;;;4.80;1.80;;;;;;;33.01;21.06;100038.59;5011818;28;20309;-62
2022/05/22 09:34:31;;;;;;;4.18;1.60;;;;;;;33.52;20.28;100032.72;5024763;28;20205;-62
2022/05/22 09:37:38;;;;;;;2.70;1.60;;;;;;;32.75;21.35;100032.72;5031771;28;20279;-62
2022/05/22 09:40:16;;;;;;;3.25;1.67;;;;;;;31.76;21.98;100023.38;4925454;28;20279;-63
2022/05/22 09:43:11;;;;;;;2.85;1.70;;;;;;;31.70;22.93;100019.78;4932868;29;20236;-62
2022/05/22 09:45:42;;;;;;;3.53;2.25;;;;;;;29.51;26.03;100016.94;4934585;29;20193;-63
2022/05/22 09:48:16;;;;;;;2.55;1.73;;;;;;;31.47;24.29;100023.09;4934591;29;20197;-63
2022/05/22 09:51:06;;;;;;;2.72;1.42;;;;;;;32.99;22.01;100025.53;4940954;28;20692;-63
2022/05/22 09:53:56;;;;;;;3.60;1.65;;;;;;;33.85;20.83;100023.19;4954344;28;20339;-63
2022/05/22 09:56:44;;;;;;;5.78;1.67;;;;;;;33.65;19.63;100021.72;4975149;28;20223;-63
2022/05/22 09:59:27;;;;;;;3.60;1.55;;;;;;;34.15;20.45;100008.72;4956967;28;20188;-63
2022/05/22 10:01:56;;;;;;;2.35;1.42;;;;;;;35.69;18.40;100017.97;4978169;28;20585;-62
2022/05/22 10:04:30;;;;;;;1.95;1.48;;;;;;;33.97;19.06;100015.13;4973294;28;20210;-63
2022/05/22 10:07:25;;;;;;;3.70;1.40;;;;;;;34.40;19.58;100011.03;4982859;28;20186;-63
2022/05/22 10:10:14;;;;;;;5.15;1.80;;;;;;;34.55;18.93;100013.09;4992426;28;20203;-63
2022/05/22 10:13:04;;;;;;;2.53;1.17;;;;;;;35.81;19.78;100009.78;4949866;28;20227;-63
2022/05/22 10:15:50;;;;;;;5.35;2.00;;;;;;;35.90;18.83;100002.94;4986961;28;20231;-63
2022/05/22 10:18:21;;;;;;;2.40;1.40;;;;;;;34.88;19.10;100000.75;5012166;28;20238;-63
2022/05/22 10:20:56;;;;;;;3.03;1.42;;;;;;;34.41;19.57;100002.75;5034830;28;20271;-62
2022/05/22 10:23:43;;;;;;;3.00;1.45;;;;;;;35.49;19.66;100005.19;5069181;28;20570;-62
2022/05/22 10:26:46;;;;;;;3.55;1.50;;;;;;;34.63;18.50;100009.19;5053436;28;20181;-63
2022/05/22 10:29:22;;;;;;;2.47;1.02;;;;;;;33.96;19.52;100000.94;5051731;28;20192;-63
2022/05/22 10:32:02;;;;;;;3.92;1.40;;;;;;;34.26;19.55;99997.97;5063031;28;20258;-64
2022/05/22 10:34:37;;;;;;;2.53;1.30;;;;;;;34.27;19.78;99990.75;5032384;28;20201;-61
2022/05/22 10:37:47;;;;;;;3.58;1.90;;;;;;;32.19;21.50;99994.91;5048527;28;20636;-62
2022/05/22 10:40:16;;;;;;;3.50;1.60;;;;;;;34.97;20.54;99999.25;5041393;28;20173;-62
2022/05/22 10:42:47;;;;;;;2.20;1.20;;;;;;;32.37;20.84;99988.69;5061639;28;20201;-62
2022/05/22 10:45:21;;;;;;;3.97;1.60;;;;;;;30.04;24.28;99991.97;5032091;28;20190;-62
2022/05/22 10:47:47;;;;;;;2.22;1.45;;;;;;;28.21;27.11;99986.56;5032436;28;20185;-61
2022/05/22 10:50:23;;;;;;;2.10;1.38;;;;;;;27.04;28.38;99979.47;5040002;28;20185;-62
2022/05/22 10:52:49;;;;;;;3.00;1.25;;;;;;;26.72;26.80;99984.31;5079854;28;20268;-61
2022/05/22 10:55:40;;;;;;;2.90;1.30;;;;;;;25.52;28.50;99972.66;5068753;28;20212;-62
2022/05/22 10:58:24;;;;;;;3.25;1.27;;;;;;;25.45;29.64;99962.84;5038597;28;20197;-62
2022/05/22 11:01:04;;;;;;;5.15;1.77;;;;;;;25.15;30.76;99962.03;5025171;28;20250;-62
2022/05/22 11:03:32;;;;;;;7.47;1.55;;;;;;;24.68;31.41;99947.44;5068904;28;20208;-62
2022/05/22 11:06:01;;;;;;;4.45;1.83;;;;;;;24.67;31.77;99951.84;5062054;28;20212;-65
2022/05/22 11:08:30;;;;;;;2.95;1.85;;;;;;;24.39;31.82;99941.91;5068054;28;20177;-61
2022/05/22 11:11:00;;;;;;;3.15;1.70;;;;;;;24.23;32.33;99942.84;5056694;28;20251;-62
2022/05/22 11:13:26;;;;;;;3.13;1.75;;;;;;;24.36;33.75;99938.81;5069096;28;20256;-64
2022/05/22 11:15:52;;;;;;;4.83;1.30;;;;;;;24.28;31.56;99930.00;5048593;28;20320;-60
2022/05/22 11:18:26;;;;;;;3.80;1.60;;;;;;;23.44;33.23;99930.69;5061139;28;20720;-61
2022/05/22 11:21:34;;;;;;;2.63;1.53;;;;;;;24.22;33.77;99925.44;5044233;28;20225;-61
2022/05/22 11:24:16;;;;;;;2.33;1.40;;;;;;;24.57;33.07;99919.72;4989717;28;20627;-62
2022/05/22 11:27:17;;;;;;;2.10;1.13;;;;;;;24.37;32.51;99922.84;5047900;28;20642;-63
2022/05/22 11:30:06;;;;;;;3.33;1.50;;;;;;;24.25;31.79;99919.03;5051036;28;20617;-62
2022/05/22 11:32:31;;;;;;;2.27;1.30;;;;;;;24.22;32.33;99914.94;5021138;28;20244;-62
2022/05/22 11:35:32;;;;;;;3.30;1.50;;;;;;;24.34;33.31;99912.72;5052647;28;20578;-62
2022/05/22 11:38:37;;;;;;;2.17;1.50;;;;;;;24.08;32.03;99902.59;5052056;28;20177;-61
2022/05/22 11:41:28;;;;;;;3.90;1.20;;;;;;;23.94;31.53;99909.41;5060723;28;20224;-61